Time;durP1;ratioP1;P1;durP2;ratioP2;P2;SDS_P1;SDS_P2;PMS_P1;PMS_P2;Temp;Humidity;BMP_temperature;BMP_pressure;BME280_temperature;BME280_humidity;BME280_pressure;Samples;Min_cycle;Max_cycle;Signal;HPM_P1;HPM_P2
2023/05/27 00:01:26;;;;;;;6.97;5.63;;;;;;;-143.84;91.97;43809.69;4991364;28;20495;-61
2023/05/27 00:03:53;;;;;;;7.40;6.20;;;;;;;-143.84;91.71;43821.09;4991067;28;20481;-61
2023/05/27 00:06:21;;;;;;;7.00;5.57;;;;;;;-143.84;91.60;43823.00;4991453;28;20499;-61
2023/05/27 00:08:49;;;;;;;15.00;6.17;;;;;;;-143.84;91.38;43834.44;4991540;28;20433;-61
2023/05/27 00:11:16;;;;;;;9.50;6.53;;;;;;;-143.84;91.33;43819.19;4991382;28;20449;-61
2023/05/27 00:13:43;;;;;;;6.90;6.30;;;;;;;-143.84;91.30;43853.47;4991096;28;20548;-61
2023/05/27 00:16:11;;;;;;;7.87;6.53;;;;;;;-143.84;91.54;43834.44;4991295;28;20495;-61
2023/05/27 00:18:38;;;;;;;7.83;6.80;;;;;;;-143.84;91.18;43883.91;4991026;28;20441;-61
2023/05/27 00:21:05;;;;;;;8.47;6.77;;;;;;;-143.84;90.83;43908.66;4991008;28;20445;-61
2023/05/27 00:23:34;;;;;;;7.60;6.80;;;;;;;-143.84;90.81;43899.16;4991141;28;21001;-61
2023/05/27 00:26:01;;;;;;;7.37;6.73;;;;;;;-143.84;90.89;43922.00;4990931;28;20487;-61
2023/05/27 00:28:30;;;;;;;6.97;6.27;;;;;;;-143.84;90.93;43908.66;4991007;28;20532;-61
2023/05/27 00:30:58;;;;;;;7.53;6.77;;;;;;;-143.84;91.21;43908.66;4991111;28;20444;-61
2023/05/27 00:33:25;;;;;;;16.50;7.83;;;;;;;-143.84;91.20;43895.34;4990989;28;20512;-61
2023/05/27 00:35:52;;;;;;;7.33;6.63;;;;;;;-143.84;91.30;43851.56;4990758;28;21017;-61
2023/05/27 00:38:19;;;;;;;7.90;7.13;;;;;;;-143.84;91.43;43874.41;4990950;28;21010;-61
2023/05/27 00:40:50;;;;;;;7.37;6.70;;;;;;;-143.84;91.23;43866.78;4982194;28;20509;-61
2023/05/27 00:43:17;;;;;;;8.07;7.27;;;;;;;-143.84;91.11;43868.69;4991035;28;20935;-64
2023/05/27 00:45:44;;;;;;;7.30;6.60;;;;;;;-143.84;91.31;43862.97;4991114;28;20441;-65
2023/05/27 00:48:12;;;;;;;7.60;6.90;;;;;;;-143.84;91.20;43855.38;4991013;28;21034;-64
2023/05/27 00:50:39;;;;;;;12.90;6.70;;;;;;;-143.84;91.39;43845.84;4991130;28;20919;-65
2023/05/27 00:53:06;;;;;;;8.90;6.50;;;;;;;-143.84;91.69;43866.78;4990665;28;20476;-64
2023/05/27 00:55:33;;;;;;;14.83;7.43;;;;;;;-143.84;91.58;43830.63;4991009;28;21196;-65
2023/05/27 00:58:04;;;;;;;9.63;6.83;;;;;;;-143.84;92.04;43832.53;4990892;28;20862;-64
2023/05/27 01:00:31;;;;;;;8.00;7.30;;;;;;;-143.84;92.21;43823.00;4990731;28;20800;-65
2023/05/27 01:02:59;;;;;;;8.40;6.37;;;;;;;-143.84;92.38;43805.88;4991207;28;20443;-64
2023/05/27 01:05:27;;;;;;;7.40;6.80;;;;;;;-143.84;92.23;43817.31;4990604;28;20527;-65
2023/05/27 01:08:19;;;;;;;8.70;7.80;;;;;;;-143.84;92.57;43807.78;4990608;28;20477;-64
2023/05/27 01:10:49;;;;;;;8.07;7.27;;;;;;;-143.84;92.67;43807.78;4991059;28;20488;-65
2023/05/27 01:13:27;;;;;;;9.73;7.50;;;;;;;-143.84;92.97;43783.03;4991278;28;20444;-64
2023/05/27 01:15:57;;;;;;;11.30;8.47;;;;;;;-143.84;93.31;43830.63;4991048;28;20939;-64
2023/05/27 01:18:29;;;;;;;10.33;7.67;;;;;;;-143.84;93.20;43784.94;4990438;28;20507;-62
2023/05/27 01:21:03;;;;;;;11.83;7.90;;;;;;;-143.84;93.42;43807.78;4990598;28;20534;-62
2023/05/27 01:23:32;;;;;;;10.33;7.60;;;;;;;-143.84;93.47;43786.84;4990199;28;20445;-62
2023/05/27 01:26:00;;;;;;;13.73;7.87;;;;;;;-143.84;93.79;43807.78;4990470;28;20967;-62
2023/05/27 01:28:27;;;;;;;9.07;7.60;;;;;;;-143.84;93.80;43800.16;4990112;28;20532;-62
2023/05/27 01:30:59;;;;;;;14.00;7.60;;;;;;;-143.84;94.08;43851.56;4990263;28;20539;-62
2023/05/27 01:33:32;;;;;;;10.80;7.40;;;;;;;-143.84;93.99;43821.09;4990301;28;20445;-62
2023/05/27 01:36:06;;;;;;;8.67;7.77;;;;;;;-143.84;93.96;43821.09;4990343;28;20523;-62
2023/05/27 01:38:37;;;;;;;10.37;8.03;;;;;;;-143.84;93.91;43826.81;4989984;28;20459;-62
2023/05/27 01:41:05;;;;;;;11.53;8.20;;;;;;;-143.84;94.03;43815.41;4989929;28;20517;-62
2023/05/27 01:43:33;;;;;;;7.87;7.17;;;;;;;-143.84;94.06;43813.50;4990075;28;20804;-62
2023/05/27 01:46:00;;;;;;;9.30;7.07;;;;;;;-143.84;94.05;43794.47;4990060;28;20441;-63
2023/05/27 01:48:27;;;;;;;8.23;7.40;;;;;;;-143.84;94.03;43813.50;4989982;28;20504;-62
2023/05/27 01:50:54;;;;;;;7.60;6.90;;;;;;;-143.84;94.14;43840.13;4989863;28;20448;-62
2023/05/27 01:53:21;;;;;;;7.93;6.40;;;;;;;-143.84;94.27;43834.44;4989760;28;20441;-62
2023/05/27 01:55:50;;;;;;;12.50;7.73;;;;;;;-143.84;94.31;43796.34;4989943;28;20441;-62
2023/05/27 01:58:17;;;;;;;7.50;6.87;;;;;;;-143.84;94.31;43832.53;4989453;28;20523;-62
2023/05/27 02:00:44;;;;;;;8.17;7.33;;;;;;;-143.84;94.40;43834.44;4989547;28;20508;-62
2023/05/27 02:03:11;;;;;;;8.97;8.07;;;;;;;-143.84;94.59;43868.69;4989799;28;21032;-62
2023/05/27 02:05:38;;;;;;;11.53;7.70;;;;;;;-143.84;94.85;43849.66;4989422;28;21060;-62
2023/05/27 02:08:06;;;;;;;7.90;7.20;;;;;;;-143.84;94.92;43853.47;4990105;28;20755;-62
2023/05/27 02:10:33;;;;;;;13.40;8.00;;;;;;;-143.84;95.12;43851.56;4989766;28;20452;-62
2023/05/27 02:13:01;;;;;;;8.73;7.20;;;;;;;-143.84;95.22;43889.63;4993107;28;20436;-61
2023/05/27 02:15:28;;;;;;;9.17;7.93;;;;;;;-143.84;95.45;43857.28;4993969;28;20484;-62
2023/05/27 02:17:56;;;;;;;8.20;7.33;;;;;;;-143.84;95.31;43889.63;4994112;28;20508;-62
2023/05/27 02:20:23;;;;;;;8.53;7.73;;;;;;;-143.84;95.37;43880.13;4993492;28;20504;-61
2023/05/27 02:22:51;;;;;;;10.40;8.80;;;;;;;-143.84;95.62;43891.53;4993582;28;20437;-62
2023/05/27 02:25:18;;;;;;;11.43;8.20;;;;;;;-143.84;95.43;43864.88;4993381;28;21017;-62
2023/05/27 02:27:59;;;;;;;11.93;8.47;;;;;;;-143.84;95.34;43868.69;4993269;28;20507;-62
2023/05/27 02:30:31;;;;;;;9.33;8.00;;;;;;;-143.84;95.33;43864.88;4993739;28;20866;-62
2023/05/27 02:32:59;;;;;;;8.87;8.00;;;;;;;-143.84;95.16;43861.06;4993218;28;20503;-62
2023/05/27 02:35:26;;;;;;;15.00;7.03;;;;;;;-143.84;95.10;43845.84;4993393;28;20936;-62
2023/05/27 02:37:58;;;;;;;9.10;7.63;;;;;;;-143.84;94.95;43866.78;4993485;28;20437;-62
2023/05/27 02:40:28;;;;;;;8.50;7.80;;;;;;;-143.84;94.82;43861.06;4993533;28;21017;-62
2023/05/27 02:42:56;;;;;;;9.33;7.43;;;;;;;-143.84;94.61;43843.94;4993331;28;20511;-62
2023/05/27 02:45:23;;;;;;;9.97;7.73;;;;;;;-143.84;94.47;43847.75;4993495;28;20440;-62
2023/05/27 02:47:59;;;;;;;7.33;6.73;;;;;;;-143.84;94.62;43859.19;4993123;28;20479;-62
2023/05/27 02:50:26;;;;;;;10.03;7.70;;;;;;;-143.84;94.36;43834.44;4993005;28;20946;-62
2023/05/27 02:52:53;;;;;;;11.10;7.17;;;;;;;-143.84;94.22;43849.66;4993344;28;20452;-62
2023/05/27 02:55:20;;;;;;;12.70;7.60;;;;;;;-143.84;94.20;43845.84;4992924;28;20496;-62
2023/05/27 02:57:47;;;;;;;11.40;8.10;;;;;;;-143.84;94.22;43817.31;4993241;28;20507;-62
2023/05/27 03:00:18;;;;;;;18.27;8.30;;;;;;;-143.84;94.20;43836.34;4992941;28;20437;-62
2023/05/27 03:02:48;;;;;;;11.30;7.13;;;;;;;-143.84;94.11;43834.44;4992904;28;20855;-62
2023/05/27 03:05:16;;;;;;;12.90;7.97;;;;;;;-143.84;94.07;43838.25;4992436;28;20564;-62
2023/05/27 03:07:46;;;;;;;9.17;7.80;;;;;;;-143.84;93.91;43824.91;4992803;28;20507;-61
2023/05/27 03:10:13;;;;;;;11.40;8.00;;;;;;;-143.84;93.94;43809.69;4992648;28;20449;-62
2023/05/27 03:12:41;;;;;;;9.50;6.90;;;;;;;-143.84;93.72;43817.31;4992769;28;20484;-62
2023/05/27 03:15:09;;;;;;;8.03;7.23;;;;;;;-143.84;93.21;43798.25;4992598;28;20480;-62
2023/05/27 03:17:38;;;;;;;7.20;6.60;;;;;;;-143.84;92.85;43786.84;4992842;28;20477;-62
2023/05/27 03:20:07;;;;;;;8.53;7.50;;;;;;;-143.84;92.88;43817.31;4992442;28;21005;-61
2023/05/27 03:22:37;;;;;;;8.47;7.37;;;;;;;-143.84;92.38;43809.69;4992518;28;20515;-61
2023/05/27 03:25:05;;;;;;;8.47;7.47;;;;;;;-143.84;91.58;43828.72;4992607;28;20445;-61
2023/05/27 03:27:34;;;;;;;7.20;5.93;;;;;;;-143.84;90.38;43950.53;4992302;28;20451;-61
2023/05/27 03:30:01;;;;;;;8.00;7.00;;;;;;;-143.84;88.15;44453.13;4992283;28;20453;-61
2023/05/27 03:32:28;;;;;;;7.90;6.97;;;;;;;-143.84;86.41;44727.28;4992180;28;20441;-64
2023/05/27 03:34:58;;;;;;;10.03;7.17;;;;;;;-143.84;83.12;44972.91;4992102;28;20477;-64
2023/05/27 03:37:25;;;;;;;14.80;6.70;;;;;;;-143.84;81.34;45030.03;4992218;28;20499;-64
2023/05/27 03:39:53;;;;;;;9.17;6.17;;;;;;;-143.84;79.85;45045.25;4992175;28;20438;-63
2023/05/27 03:42:23;;;;;;;6.63;6.00;;;;;;;-143.84;78.58;45007.19;4992078;28;20450;-63
2023/05/27 03:44:54;;;;;;;7.43;6.63;;;;;;;-143.84;76.06;45073.81;4992259;28;20459;-64
2023/05/27 03:47:21;;;;;;;7.60;5.70;;;;;;;-143.84;74.65;45070.00;4991747;28;20439;-65
2023/05/27 03:49:48;;;;;;;6.30;5.00;;;;;;;-143.84;73.63;45070.00;4992124;28;20447;-64
2023/05/27 03:52:16;;;;;;;6.70;5.93;;;;;;;-143.84;73.27;45070.00;4991937;28;20454;-64
2023/05/27 03:54:43;;;;;;;6.30;5.70;;;;;;;-143.84;72.33;45066.22;4991943;28;20512;-64
2023/05/27 03:57:11;;;;;;;10.23;4.93;;;;;;;-143.84;71.55;45092.88;4991906;28;20507;-64
2023/05/27 03:59:39;;;;;;;11.40;4.57;;;;;;;-143.84;70.40;45068.13;4992123;28;20440;-64
2023/05/27 04:02:06;;;;;;;5.10;4.60;;;;;;;-143.84;69.77;45087.16;4991708;28;20850;-64
2023/05/27 04:04:33;;;;;;;8.13;5.53;;;;;;;-143.84;69.12;45089.06;4991677;28;20990;-64
2023/05/27 04:07:01;;;;;;;7.23;4.23;;;;;;;-143.84;69.07;45052.88;4991729;28;20524;-64
2023/05/27 04:09:28;;;;;;;6.90;4.70;;;;;;;-143.84;68.91;45062.41;4991782;28;20962;-64
2023/05/27 04:11:55;;;;;;;5.60;5.07;;;;;;;-143.84;67.92;45090.97;4991689;28;20557;-65
2023/05/27 04:14:23;;;;;;;14.83;4.53;;;;;;;-143.84;67.37;45077.63;4991630;28;20492;-64
2023/05/27 04:16:50;;;;;;;5.77;5.13;;;;;;;-143.84;67.56;45083.34;4991271;28;20532;-64
2023/05/27 04:19:17;;;;;;;5.10;4.60;;;;;;;-143.84;67.18;45049.06;4991191;28;20520;-64
2023/05/27 04:21:45;;;;;;;7.70;4.50;;;;;;;-143.84;67.20;45079.53;4991156;28;20511;-64
2023/05/27 04:24:12;;;;;;;5.30;4.80;;;;;;;-143.84;66.04;45077.63;4991025;28;20437;-65
2023/05/27 04:26:40;;;;;;;7.73;5.23;;;;;;;-143.84;65.57;45087.16;4991282;28;20445;-64
2023/05/27 04:29:09;;;;;;;5.83;3.97;;;;;;;-143.84;63.65;45052.88;4991144;28;20901;-62
2023/05/27 04:31:39;;;;;;;7.30;4.80;;;;;;;-143.84;63.25;45077.63;4990900;28;20504;-61
2023/05/27 04:34:07;;;;;;;9.60;4.47;;;;;;;-143.84;62.85;45043.34;4990536;28;20447;-62
2023/05/27 04:36:34;;;;;;;12.73;4.40;;;;;;;-143.84;61.52;45031.94;4991043;28;20892;-62
2023/05/27 04:39:02;;;;;;;6.87;3.90;;;;;;;-143.84;60.66;45077.63;4991065;28;20971;-63
2023/05/27 04:41:29;;;;;;;6.70;3.90;;;;;;;-143.84;59.89;45071.91;4990826;28;20490;-61
2023/05/27 04:43:58;;;;;;;3.90;3.60;;;;;;;-143.84;58.89;45070.00;4990796;28;20461;-62
2023/05/27 04:46:26;;;;;;;4.43;4.03;;;;;;;-143.84;57.81;45030.03;4990618;28;20896;-62
2023/05/27 04:48:55;;;;;;;4.93;4.00;;;;;;;-143.84;57.36;45035.75;4990989;28;20431;-62
2023/05/27 04:51:22;;;;;;;7.77;3.90;;;;;;;-143.84;56.55;45056.69;4990506;28;20883;-63
2023/05/27 04:53:50;;;;;;;5.40;4.00;;;;;;;-143.84;56.11;45052.88;4990787;28;20566;-62
2023/05/27 04:56:17;;;;;;;4.77;3.90;;;;;;;-143.84;56.85;45049.06;4990761;28;20957;-62
2023/05/27 04:58:48;;;;;;;8.53;4.17;;;;;;;-143.84;57.76;45079.53;4990623;28;20458;-62
2023/05/27 05:01:18;;;;;;;7.73;5.10;;;;;;;-143.84;59.02;45054.78;4990492;28;20475;-62
2023/05/27 05:03:52;;;;;;;4.87;4.37;;;;;;;-143.84;59.65;45070.00;4990255;28;20491;-63
2023/05/27 05:06:23;;;;;;;13.90;4.90;;;;;;;-143.84;60.44;45050.97;4990757;28;20936;-63
2023/05/27 05:08:50;;;;;;;7.63;4.53;;;;;;;-143.84;61.60;45056.69;4990690;28;20487;-62
2023/05/27 05:11:17;;;;;;;8.10;5.20;;;;;;;-143.84;63.20;45062.41;4988996;28;21273;-62
2023/05/27 05:13:44;;;;;;;5.40;4.90;;;;;;;-143.84;64.68;45064.31;4990325;28;21150;-63
2023/05/27 05:16:11;;;;;;;12.20;5.30;;;;;;;-143.84;66.46;45066.22;4990315;28;21356;-62
2023/05/27 05:18:38;;;;;;;7.27;4.90;;;;;;;-143.84;67.29;45049.06;4990526;28;20445;-63
2023/05/27 05:21:05;;;;;;;11.20;5.40;;;;;;;-143.84;68.41;45071.91;4990551;28;20429;-62
2023/05/27 05:23:34;;;;;;;8.37;4.97;;;;;;;-143.84;68.61;45068.13;4990227;28;20448;-62
2023/05/27 05:26:06;;;;;;;10.30;5.87;;;;;;;-143.84;69.08;45079.53;4990266;28;20437;-62
2023/05/27 05:28:34;;;;;;;9.37;5.73;;;;;;;-143.84;69.96;45056.69;4990166;28;20457;-62
2023/05/27 05:31:01;;;;;;;12.07;5.27;;;;;;;-143.84;70.56;45050.97;4990209;28;20437;-62
2023/05/27 05:33:29;;;;;;;12.27;5.50;;;;;;;-143.84;71.27;45075.72;4990176;28;20508;-62
2023/05/27 05:35:56;;;;;;;10.50;6.07;;;;;;;-143.84;71.68;45052.88;4990346;28;20484;-62
2023/05/27 05:38:24;;;;;;;8.90;6.30;;;;;;;-143.84;72.25;45062.41;4990336;28;21045;-64
2023/05/27 05:40:54;;;;;;;7.93;6.47;;;;;;;-143.84;73.22;45077.63;4990254;28;20511;-64
2023/05/27 05:43:21;;;;;;;8.80;6.03;;;;;;;-143.84;73.76;45071.91;4989902;28;20449;-64
2023/05/27 05:45:48;;;;;;;13.40;6.67;;;;;;;-143.84;74.68;45066.22;4989201;28;21021;-64
2023/05/27 05:48:15;;;;;;;7.80;6.40;;;;;;;-143.84;74.88;45035.75;4990364;28;20440;-64
2023/05/27 05:50:43;;;;;;;9.50;6.33;;;;;;;-143.84;75.41;45054.78;4989755;28;20441;-64
2023/05/27 05:53:10;;;;;;;7.10;6.17;;;;;;;-143.84;75.86;45045.25;4989830;28;20449;-64
2023/05/27 05:55:37;;;;;;;6.00;5.50;;;;;;;-143.84;76.34;45043.34;4989520;28;20496;-64
2023/05/27 05:58:06;;;;;;;10.70;6.90;;;;;;;-143.84;76.80;45062.41;4989813;28;20437;-64
2023/05/27 06:00:33;;;;;;;7.37;6.00;;;;;;;-143.84;77.10;45037.66;4990031;28;20508;-64
2023/05/27 06:03:00;;;;;;;11.83;7.43;;;;;;;-143.84;77.27;45062.41;4990096;28;20469;-64
2023/05/27 06:05:28;;;;;;;7.60;6.33;;;;;;;-143.84;77.69;45054.78;4989716;28;20484;-64
2023/05/27 06:07:55;;;;;;;7.83;7.07;;;;;;;-143.84;77.93;45039.53;4989547;28;20455;-65
2023/05/27 06:10:22;;;;;;;7.07;6.37;;;;;;;-143.84;78.45;45045.25;4989894;28;20448;-65
2023/05/27 06:12:49;;;;;;;7.77;6.93;;;;;;;-143.84;78.60;45014.78;4989536;28;20437;-65
2023/05/27 06:15:18;;;;;;;7.87;6.60;;;;;;;-143.84;78.77;45024.31;4989302;28;20496;-64
2023/05/27 06:17:47;;;;;;;12.07;6.27;;;;;;;-143.84;78.58;45030.03;4987421;28;20451;-64
2023/05/27 06:20:14;;;;;;;8.90;6.73;;;;;;;-143.84;78.68;45009.09;4989601;28;21200;-64
2023/05/27 06:22:41;;;;;;;10.70;6.70;;;;;;;-143.84;78.86;45020.50;4989963;28;20449;-64
2023/05/27 06:25:09;;;;;;;8.90;7.67;;;;;;;-143.84;79.21;45028.13;4989552;28;20445;-64
2023/05/27 06:27:36;;;;;;;10.17;7.10;;;;;;;-143.84;79.35;45016.69;4989650;28;20506;-64
2023/05/27 06:30:03;;;;;;;14.80;7.30;;;;;;;-143.84;79.52;45024.31;4989921;28;21238;-64
2023/05/27 06:32:32;;;;;;;10.10;6.67;;;;;;;-143.84;79.58;44999.56;4989579;28;20441;-64
2023/05/27 06:34:59;;;;;;;7.30;6.50;;;;;;;-143.84;79.76;44995.75;4989688;28;20512;-64
2023/05/27 06:37:26;;;;;;;7.27;6.70;;;;;;;-143.84;79.59;44993.84;4989518;28;20444;-65
2023/05/27 06:39:53;;;;;;;8.50;7.70;;;;;;;-143.84;79.57;45014.78;4989716;28;20519;-64
2023/05/27 06:42:22;;;;;;;8.27;7.47;;;;;;;-143.84;79.33;44976.72;4989356;28;20452;-65
2023/05/27 06:44:49;;;;;;;8.57;6.90;;;;;;;-143.84;79.21;45016.69;4988634;28;20807;-55
2023/05/27 06:47:16;;;;;;;9.93;7.20;;;;;;;-143.84;79.72;45003.38;4989218;28;20515;-55
2023/05/27 06:49:45;;;;;;;9.30;7.50;;;;;;;-143.84;79.37;45014.78;4989281;28;20520;-55
2023/05/27 06:52:12;;;;;;;13.00;7.70;;;;;;;-143.84;79.08;44978.63;4989089;28;20882;-55
2023/05/27 06:54:39;;;;;;;11.10;7.60;;;;;;;-143.84;79.02;44988.13;4988946;28;20543;-55
2023/05/27 06:57:06;;;;;;;9.17;6.20;;;;;;;-143.84;78.57;45016.69;4989347;28;20484;-55
2023/05/27 06:59:33;;;;;;;8.37;6.73;;;;;;;-143.84;78.18;44978.63;4991738;28;20445;-55
2023/05/27 07:02:00;;;;;;;8.10;7.40;;;;;;;-143.84;77.01;45028.13;4992116;28;20441;-55
2023/05/27 07:04:28;;;;;;;13.30;6.77;;;;;;;-143.84;76.06;45033.84;4984168;28;20476;-55
2023/05/27 07:06:56;;;;;;;12.33;5.80;;;;;;;-143.84;75.90;45045.25;4992543;28;20515;-55
2023/05/27 07:09:23;;;;;;;11.50;6.87;;;;;;;-143.84;73.38;45041.44;4992530;28;20445;-55
2023/05/27 07:11:50;;;;;;;7.87;7.07;;;;;;;-143.84;73.23;45058.59;4992307;28;20477;-55
2023/05/27 07:14:17;;;;;;;8.27;6.40;;;;;;;-143.84;73.18;45066.22;4992180;28;20490;-55
2023/05/27 07:16:44;;;;;;;7.20;6.50;;;;;;;-143.84;72.12;45070.00;4992494;28;20900;-56
2023/05/27 07:19:12;;;;;;;9.07;7.20;;;;;;;-143.84;72.00;45062.41;4992485;28;21129;-53
2023/05/27 07:21:39;;;;;;;10.10;6.83;;;;;;;-143.84;71.91;45062.41;4992250;28;20971;-53
2023/05/27 07:24:07;;;;;;;8.00;6.80;;;;;;;-143.84;72.30;45043.34;4992635;28;20444;-53
2023/05/27 07:26:34;;;;;;;11.70;7.60;;;;;;;-143.84;71.91;45045.25;4992218;28;20511;-53
2023/05/27 07:29:02;;;;;;;9.33;7.10;;;;;;;-143.84;71.78;45039.53;4991575;28;20998;-53
2023/05/27 07:31:29;;;;;;;12.63;7.30;;;;;;;-143.84;70.03;45062.41;4991985;28;20442;-53
2023/05/27 07:33:56;;;;;;;9.73;6.87;;;;;;;-143.84;69.40;45068.13;4992289;28;20870;-53
2023/05/27 07:36:24;;;;;;;11.50;6.57;;;;;;;-143.84;70.29;45049.06;4992110;28;20485;-53
2023/05/27 07:38:51;;;;;;;7.30;6.40;;;;;;;-143.84;70.42;45083.34;4991511;28;20446;-53
2023/05/27 07:41:20;;;;;;;13.50;7.23;;;;;;;-143.84;72.11;45043.34;4986563;28;20520;-54
2023/05/27 07:43:47;;;;;;;9.80;6.20;;;;;;;-143.84;74.13;45033.84;4990909;28;20455;-53
2023/05/27 07:46:14;;;;;;;12.83;7.77;;;;;;;-143.84;73.82;45037.66;4990733;28;20462;-53
2023/05/27 07:48:41;;;;;;;10.57;7.33;;;;;;;-143.84;73.63;45014.78;4990709;28;20485;-53
2023/05/27 07:51:08;;;;;;;8.20;7.40;;;;;;;-143.84;72.18;45033.84;4989915;28;20454;-53
2023/05/27 07:53:37;;;;;;;11.33;6.50;;;;;;;-143.84;72.12;45037.66;4986898;28;20454;-53
2023/05/27 07:56:05;;;;;;;11.13;7.17;;;;;;;-143.84;71.46;45028.13;4986244;28;20493;-53
2023/05/27 07:58:33;;;;;;;10.23;6.60;;;;;;;-143.84;68.55;45064.31;4989857;28;20465;-53
2023/05/27 08:01:00;;;;;;;6.93;5.87;;;;;;;-143.84;67.81;45041.44;4989467;28;20544;-53
2023/05/27 08:03:27;;;;;;;5.73;5.20;;;;;;;-143.84;67.02;45037.66;4990419;28;20458;-54
2023/05/27 08:05:54;;;;;;;16.80;7.87;;;;;;;-143.84;62.47;45035.75;4990203;28;20950;-53
2023/05/27 08:08:21;;;;;;;9.90;6.50;;;;;;;-143.84;60.52;45054.78;4989951;28;20440;-53
2023/05/27 08:10:48;;;;;;;5.93;5.53;;;;;;;-143.84;62.63;45045.25;4986766;28;20526;-62
2023/05/27 08:13:15;;;;;;;9.80;6.00;;;;;;;-143.84;61.74;45058.59;4990441;28;20464;-62
2023/05/27 08:15:44;;;;;;;17.70;6.77;;;;;;;-143.84;59.48;45041.44;4990678;28;20514;-53
2023/05/27 08:18:11;;;;;;;8.63;5.90;;;;;;;-143.84;58.25;45033.84;4990563;28;21358;-53
2023/05/27 08:20:38;;;;;;;9.33;6.27;;;;;;;-143.84;57.08;45041.44;4990478;28;20443;-55
2023/05/27 08:23:05;;;;;;;9.10;7.00;;;;;;;-143.84;56.69;45045.25;4990593;28;21233;-55
2023/05/27 08:25:32;;;;;;;10.70;7.10;;;;;;;-143.84;57.92;45037.66;4990237;28;20480;-55
2023/05/27 08:28:01;;;;;;;172.93;70.87;;;;;;;-143.84;59.07;45037.66;4990178;28;20451;-55
2023/05/27 08:30:28;;;;;;;51.90;26.40;;;;;;;-143.84;60.46;45058.59;4990423;28;20452;-55
2023/05/27 08:32:57;;;;;;;76.87;36.27;;;;;;;-143.84;61.09;45070.00;4990196;28;20455;-55
2023/05/27 08:35:24;;;;;;;37.67;19.57;;;;;;;-143.84;61.18;45068.13;4990012;28;21279;-55
2023/05/27 08:37:51;;;;;;;178.27;88.37;;;;;;;-143.84;62.46;45071.91;4989904;28;20523;-55
2023/05/27 08:40:20;;;;;;;165.20;80.57;;;;;;;-143.84;63.17;45079.53;4989570;28;20481;-55
2023/05/27 08:42:48;;;;;;;117.43;48.43;;;;;;;-143.84;63.77;45064.31;4989978;28;20435;-55
2023/05/27 08:45:16;;;;;;;28.27;15.30;;;;;;;-143.84;64.46;45068.13;4990182;28;20448;-55
2023/05/27 08:47:43;;;;;;;65.50;27.87;;;;;;;-143.84;65.19;45058.59;4989825;28;20482;-55
2023/05/27 08:50:12;;;;;;;10.23;8.20;;;;;;;-143.84;65.27;45077.63;4989049;28;20450;-55
2023/05/27 08:52:46;;;;;;;9.20;7.00;;;;;;;-143.84;63.98;45052.88;4989409;28;21022;-55
2023/05/27 08:55:16;;;;;;;18.43;9.60;;;;;;;-143.84;67.55;45058.59;4989476;28;20462;-55
2023/05/27 08:57:47;;;;;;;25.97;12.03;;;;;;;-143.84;70.23;45041.44;4989488;28;21012;-54
2023/05/27 09:00:15;;;;;;;42.87;17.23;;;;;;;-143.84;73.57;45054.78;4989362;28;20957;-55
2023/05/27 09:02:42;;;;;;;18.07;10.00;;;;;;;-143.84;74.20;45054.78;4989583;28;20446;-55
2023/05/27 09:05:12;;;;;;;10.70;9.10;;;;;;;-143.84;76.27;45041.44;4982807;28;20473;-55
2023/05/27 09:07:39;;;;;;;12.03;9.13;;;;;;;-143.84;77.67;45022.41;4976256;28;20454;-55
2023/05/27 09:10:08;;;;;;;13.97;9.37;;;;;;;-143.84;76.43;45033.84;4976348;28;20452;-55
2023/05/27 09:12:36;;;;;;;13.03;9.90;;;;;;;-143.84;77.49;45001.47;4975304;28;20450;-55
2023/05/27 09:15:04;;;;;;;14.00;10.50;;;;;;;-143.84;78.47;44984.31;4980383;28;20501;-55
2023/05/27 09:17:32;;;;;;;17.00;10.67;;;;;;;-143.84;78.66;44986.22;4983238;28;20488;-55
2023/05/27 09:19:59;;;;;;;12.00;10.70;;;;;;;-143.84;78.79;44991.94;4974965;28;20952;-55
2023/05/27 09:22:31;;;;;;;11.40;10.20;;;;;;;-143.84;79.04;44991.94;4978813;28;20544;-54
2023/05/27 09:24:59;;;;;;;10.47;9.37;;;;;;;-143.84;78.93;44967.19;4976799;28;20489;-55
2023/05/27 09:27:27;;;;;;;21.93;10.77;;;;;;;-143.84;79.77;44972.91;4970998;28;20834;-55
2023/05/27 09:29:54;;;;;;;12.30;11.10;;;;;;;-143.84;81.64;44858.66;4977130;28;20507;-55
2023/05/27 09:32:28;;;;;;;12.17;10.33;;;;;;;-143.84;81.83;44870.09;4974285;28;20528;-55
2023/05/27 09:34:56;;;;;;;17.83;10.50;;;;;;;-143.84;79.57;44923.41;4972071;28;21023;-55
2023/05/27 09:37:31;;;;;;;10.27;9.23;;;;;;;-143.84;74.38;45022.41;4976689;28;20536;-55
2023/05/27 09:40:00;;;;;;;16.93;9.10;;;;;;;-143.84;74.15;45033.84;4978892;28;20547;-55
2023/05/27 09:42:27;;;;;;;14.87;9.30;;;;;;;-143.84;74.35;45024.31;4977826;28;20450;-55
2023/05/27 09:44:55;;;;;;;16.33;9.20;;;;;;;-143.84;72.23;45060.50;4977256;28;20484;-55
2023/05/27 09:47:24;;;;;;;21.00;9.63;;;;;;;-143.84;74.21;45028.13;4970612;28;20507;-54
2023/05/27 09:49:54;;;;;;;15.17;10.03;;;;;;;-143.84;72.12;45050.97;4965380;28;20530;-54
2023/05/27 09:52:22;;;;;;;18.30;8.80;;;;;;;-143.84;73.02;45033.84;4972909;28;21414;-55
2023/05/27 09:54:51;;;;;;;14.17;8.90;;;;;;;-143.84;73.05;45049.06;4970050;28;20453;-54
2023/05/27 09:57:20;;;;;;;13.30;9.30;;;;;;;-143.84;72.29;45028.13;4980256;28;20520;-54
2023/05/27 09:59:50;;;;;;;10.40;8.77;;;;;;;-143.84;72.27;45030.03;4969043;28;20446;-54
2023/05/27 10:02:19;;;;;;;13.20;9.90;;;;;;;-143.84;75.91;45007.19;4980020;28;20457;-54
2023/05/27 10:04:49;;;;;;;12.23;8.73;;;;;;;-143.84;72.96;45056.69;4977364;28;20485;-54
2023/05/27 10:07:20;;;;;;;14.60;8.50;;;;;;;-143.84;74.36;45083.34;4969159;28;20464;-54
2023/05/27 10:09:48;;;;;;;11.93;8.90;;;;;;;-143.84;74.64;45024.31;4968727;28;20519;-54
2023/05/27 10:12:16;;;;;;;21.13;10.17;;;;;;;-143.84;77.49;45026.22;4966677;28;20454;-54
2023/05/27 10:14:46;;;;;;;15.13;9.70;;;;;;;-143.84;78.23;45003.38;4969173;28;20469;-54
2023/05/27 10:17:13;;;;;;;15.00;9.50;;;;;;;-143.84;77.01;45005.28;4967469;28;20595;-54
2023/05/27 10:19:55;;;;;;;15.63;10.43;;;;;;;-143.84;77.12;45014.78;4968017;28;20515;-54
2023/05/27 10:22:22;;;;;;;10.60;8.90;;;;;;;-143.84;76.15;45010.97;4966387;28;20455;-54
2023/05/27 10:24:50;;;;;;;9.53;8.53;;;;;;;-143.84;75.95;45056.69;4970165;28;20457;-55
2023/05/27 10:27:17;;;;;;;14.53;9.00;;;;;;;-143.84;75.63;45043.34;4973500;28;20454;-54
2023/05/27 10:29:45;;;;;;;9.67;8.27;;;;;;;-143.84;76.65;45037.66;4971688;28;20516;-54
2023/05/27 10:32:12;;;;;;;15.10;9.30;;;;;;;-143.84;76.86;45003.38;4968429;28;20959;-54
2023/05/27 10:34:46;;;;;;;9.53;7.87;;;;;;;-143.84;78.07;44997.66;4967387;28;21020;-54
2023/05/27 10:37:21;;;;;;;12.40;8.70;;;;;;;-143.84;78.49;44991.94;4968812;28;20485;-55
2023/05/27 10:39:55;;;;;;;11.83;8.70;;;;;;;-143.84;78.51;44988.13;4972611;28;20465;-55
2023/05/27 10:42:24;;;;;;;9.30;8.40;;;;;;;-143.84;78.39;45009.09;4966442;28;20454;-55
2023/05/27 10:45:04;;;;;;;11.63;10.30;;;;;;;-143.84;78.68;45007.19;4974835;28;20449;-55
2023/05/27 10:47:32;;;;;;;14.77;11.77;;;;;;;-143.84;79.30;44991.94;4971426;28;20877;-59
2023/05/27 10:49:59;;;;;;;16.10;11.53;;;;;;;-143.84;80.01;44974.81;4975294;28;20456;-55
2023/05/27 10:52:31;;;;;;;15.10;10.67;;;;;;;-143.84;80.97;44957.66;4968838;28;20598;-55
2023/05/27 10:55:00;;;;;;;17.97;12.23;;;;;;;-143.84;81.62;44911.97;4969856;28;20899;-55
2023/05/27 10:57:31;;;;;;;14.13;12.00;;;;;;;-143.84;81.03;44950.06;4972055;28;21386;-55
2023/05/27 11:00:08;;;;;;;21.27;11.30;;;;;;;-143.84;80.87;44942.44;4967626;28;20843;-54
2023/05/27 11:02:37;;;;;;;13.67;9.57;;;;;;;-143.84;80.74;44951.97;4967799;28;20522;-55
2023/05/27 11:05:15;;;;;;;12.63;8.33;;;;;;;-143.84;79.27;44972.91;4977058;28;20482;-55
2023/05/27 11:07:43;;;;;;;13.57;10.00;;;;;;;-143.84;79.23;44991.94;4973953;28;20481;-55
2023/05/27 11:10:10;;;;;;;12.03;9.00;;;;;;;-143.84;79.62;44988.13;4977007;28;20459;-54
2023/05/27 11:12:37;;;;;;;12.90;9.30;;;;;;;-143.84;79.93;44993.84;4980487;28;20601;-55
2023/05/27 11:15:07;;;;;;;14.23;9.80;;;;;;;-143.84;80.41;44974.81;4984028;28;20983;-55
2023/05/27 11:17:34;;;;;;;12.87;9.37;;;;;;;-143.84;80.69;44982.41;4980622;28;20521;-55